Time;durP1;ratioP1;P1;durP2;ratioP2;P2;SDS_P1;SDS_P2;PMS_P1;PMS_P2;Temp;Humidity;BMP_temperature;BMP_pressure;BME280_temperature;BME280_humidity;BME280_pressure;Samples;Min_cycle;Max_cycle;Signal;HPM_P1;HPM_P2
2021/06/02 00:00:00;;;;;;;;;;;21.80;44.10;;;;;;461426;258;1212;-45
2021/06/02 00:02:01;;;;;;;;;;;21.90;43.90;;;;;;461291;258;1228;-45
2021/06/02 00:04:02;;;;;;;;;;;21.50;44.50;;;;;;461315;258;1096;-45
2021/06/02 00:06:04;;;;;;;;;;;21.00;45.70;;;;;;461267;258;2197;-45
2021/06/02 00:08:05;;;;;;;;;;;20.50;46.90;;;;;;461568;258;1258;-44
2021/06/02 00:10:07;;;;;;;;;;;20.20;47.90;;;;;;461461;258;1128;-44
2021/06/02 00:12:08;;;;;;;;;;;19.90;48.40;;;;;;461262;258;1354;-44
2021/06/02 00:14:09;;;;;;;;;;;19.80;48.90;;;;;;461412;258;1056;-44
2021/06/02 00:16:10;;;;;;;;;;;19.60;49.30;;;;;;461100;258;1177;-44
2021/06/02 00:18:12;;;;;;;;;;;19.50;49.60;;;;;;461202;258;1186;-44
2021/06/02 00:20:13;;;;;;;;;;;19.50;49.70;;;;;;461324;258;1057;-45
2021/06/02 00:22:14;;;;;;;;;;;19.40;49.90;;;;;;461119;258;1316;-44
2021/06/02 00:24:16;;;;;;;;;;;19.30;50.00;;;;;;461575;258;1078;-44
2021/06/02 00:26:17;;;;;;;;;;;19.30;50.10;;;;;;461382;258;2212;-44
2021/06/02 00:28:18;;;;;;;;;;;19.30;50.30;;;;;;461614;258;1084;-44
2021/06/02 00:30:19;;;;;;;;;;;19.20;50.30;;;;;;461392;258;1069;-44
2021/06/02 00:32:21;;;;;;;;;;;19.20;50.60;;;;;;461123;258;1416;-45
2021/06/02 00:34:22;;;;;;;;;;;19.10;50.70;;;;;;461298;258;1566;-44
2021/06/02 00:36:23;;;;;;;;;;;19.00;50.80;;;;;;461249;258;1138;-44
2021/06/02 00:38:25;;;;;;;;;;;19.00;50.80;;;;;;461470;258;1045;-44
2021/06/02 00:40:26;;;;;;;;;;;19.00;51.00;;;;;;461553;258;1120;-44
2021/06/02 00:42:27;;;;;;;;;;;19.00;51.00;;;;;;461558;258;1197;-45
2021/06/02 00:44:28;;;;;;;;;;;19.00;50.90;;;;;;461199;258;1076;-44
2021/06/02 00:46:31;;;;;;;;;;;18.90;51.00;;;;;;461501;258;2149;-44
2021/06/02 00:48:31;;;;;;;;;;;18.90;51.10;;;;;;461117;258;1999;-44
2021/06/02 00:50:32;;;;;;;;;;;18.80;51.10;;;;;;461167;258;1191;-44
2021/06/02 00:52:35;;;;;;;;;;;18.80;51.20;;;;;;461168;258;1342;-44
2021/06/02 00:54:37;;;;;;;;;;;18.80;51.30;;;;;;461141;258;2527;-44
2021/06/02 00:56:38;;;;;;;;;;;18.80;51.30;;;;;;461146;258;1360;-44
2021/06/02 00:58:41;;;;;;;;;;;18.80;51.40;;;;;;461395;258;1057;-44
2021/06/02 01:00:42;;;;;;;;;;;18.80;51.30;;;;;;461118;258;1497;-44
2021/06/02 01:02:44;;;;;;;;;;;18.80;51.40;;;;;;461327;258;1251;-44
2021/06/02 01:04:45;;;;;;;;;;;18.70;51.40;;;;;;461405;258;1301;-44
2021/06/02 01:06:46;;;;;;;;;;;18.70;51.50;;;;;;461128;258;2200;-44
2021/06/02 01:08:47;;;;;;;;;;;18.70;51.50;;;;;;461551;258;1049;-44
2021/06/02 01:10:49;;;;;;;;;;;18.70;51.60;;;;;;461274;258;1077;-44
2021/06/02 01:12:50;;;;;;;;;;;18.60;51.50;;;;;;461176;258;1103;-45
2021/06/02 01:14:51;;;;;;;;;;;18.60;51.60;;;;;;461361;258;1145;-44
2021/06/02 01:16:52;;;;;;;;;;;18.60;51.60;;;;;;461070;258;1147;-44
2021/06/02 01:18:54;;;;;;;;;;;18.60;51.60;;;;;;461549;258;1067;-44
2021/06/02 01:20:55;;;;;;;;;;;18.60;51.70;;;;;;461134;258;1176;-44
2021/06/02 01:22:56;;;;;;;;;;;18.50;51.70;;;;;;461196;258;1125;-44
2021/06/02 01:24:58;;;;;;;;;;;18.50;51.70;;;;;;461201;258;1107;-44
2021/06/02 01:26:59;;;;;;;;;;;18.50;51.70;;;;;;461124;258;2200;-44
2021/06/02 01:29:00;;;;;;;;;;;18.50;51.70;;;;;;461553;258;1087;-44
2021/06/02 01:31:02;;;;;;;;;;;18.50;51.80;;;;;;461304;258;1156;-44
2021/06/02 01:33:03;;;;;;;;;;;18.50;51.80;;;;;;461254;258;1044;-44
2021/06/02 01:35:04;;;;;;;;;;;18.50;51.80;;;;;;461234;258;1392;-44
2021/06/02 01:37:06;;;;;;;;;;;18.40;51.90;;;;;;461562;258;1061;-44
2021/06/02 01:39:07;;;;;;;;;;;18.40;51.90;;;;;;461180;258;1071;-44
2021/06/02 01:41:08;;;;;;;;;;;18.40;51.80;;;;;;461512;258;1126;-44
2021/06/02 01:43:09;;;;;;;;;;;18.40;51.90;;;;;;461161;258;1278;-44
2021/06/02 01:45:11;;;;;;;;;;;18.40;51.80;;;;;;461217;258;1093;-44
2021/06/02 01:47:12;;;;;;;;;;;18.40;51.80;;;;;;461125;258;2204;-44
2021/06/02 01:49:13;;;;;;;;;;;18.70;51.30;;;;;;461625;258;1090;-45
2021/06/02 01:51:15;;;;;;;;;;;19.20;50.10;;;;;;461188;258;1304;-44
2021/06/02 01:53:16;;;;;;;;;;;19.50;49.10;;;;;;461415;258;1089;-45
2021/06/02 01:55:17;;;;;;;;;;;19.80;48.40;;;;;;461609;258;1102;-44
2021/06/02 01:57:18;;;;;;;;;;;20.00;47.90;;;;;;461129;258;1248;-44
2021/06/02 01:59:20;;;;;;;;;;;20.10;47.40;;;;;;461511;258;1104;-45
2021/06/02 02:01:21;;;;;;;;;;;20.30;47.20;;;;;;461148;258;1121;-45
2021/06/02 02:03:22;;;;;;;;;;;20.40;46.90;;;;;;461566;258;1128;-44
2021/06/02 02:05:24;;;;;;;;;;;20.40;46.70;;;;;;461240;258;1315;-45
2021/06/02 02:07:25;;;;;;;;;;;20.50;46.60;;;;;;461536;258;2156;-45
2021/06/02 02:09:26;;;;;;;;;;;20.60;46.50;;;;;;461583;258;1076;-45
2021/06/02 02:11:28;;;;;;;;;;;20.60;46.30;;;;;;461523;258;1327;-44
2021/06/02 02:13:29;;;;;;;;;;;20.70;46.10;;;;;;461223;258;1017;-45
2021/06/02 02:15:30;;;;;;;;;;;20.70;45.90;;;;;;461586;258;1241;-45
2021/06/02 02:17:31;;;;;;;;;;;20.80;45.90;;;;;;461563;258;1088;-45
2021/06/02 02:19:33;;;;;;;;;;;20.80;45.90;;;;;;461578;258;1050;-45
2021/06/02 02:21:34;;;;;;;;;;;20.80;45.80;;;;;;461222;258;1161;-45
2021/06/02 02:23:35;;;;;;;;;;;20.90;45.60;;;;;;461530;258;1142;-45
2021/06/02 02:25:37;;;;;;;;;;;20.90;45.60;;;;;;461195;258;1113;-45
2021/06/02 02:27:38;;;;;;;;;;;20.90;45.50;;;;;;461547;258;2136;-45
2021/06/02 02:29:39;;;;;;;;;;;21.00;45.40;;;;;;461570;258;1059;-44
2021/06/02 02:31:43;;;;;;;;;;;21.00;45.30;;;;;;461338;258;1078;-44
2021/06/02 02:33:42;;;;;;;;;;;21.10;45.30;;;;;;461430;258;1490;-44
2021/06/02 02:35:43;;;;;;;;;;;21.10;45.20;;;;;;461418;258;1190;-44
2021/06/02 02:37:45;;;;;;;;;;;21.20;45.20;;;;;;461401;258;1109;-45
2021/06/02 02:39:46;;;;;;;;;;;21.10;45.20;;;;;;461271;258;1080;-45
2021/06/02 02:41:47;;;;;;;;;;;21.20;45.10;;;;;;461577;258;1085;-45
2021/06/02 02:43:49;;;;;;;;;;;21.20;45.10;;;;;;461361;258;1047;-44
2021/06/02 02:45:50;;;;;;;;;;;21.20;45.10;;;;;;461166;258;1545;-45
2021/06/02 02:47:51;;;;;;;;;;;21.20;45.00;;;;;;461545;258;2148;-45
2021/06/02 02:49:53;;;;;;;;;;;21.20;44.90;;;;;;461474;258;1085;-45
2021/06/02 02:51:54;;;;;;;;;;;21.30;44.90;;;;;;461261;258;1296;-45
2021/06/02 02:53:55;;;;;;;;;;;21.30;44.90;;;;;;461318;258;1100;-45
2021/06/02 02:55:56;;;;;;;;;;;21.30;44.80;;;;;;461467;258;1197;-45
2021/06/02 02:57:58;;;;;;;;;;;21.40;44.80;;;;;;461562;258;1125;-44
2021/06/02 02:59:59;;;;;;;;;;;21.40;44.80;;;;;;461455;258;1253;-45
2021/06/02 03:02:00;;;;;;;;;;;21.40;44.70;;;;;;461360;258;1113;-45
2021/06/02 03:04:02;;;;;;;;;;;21.40;44.70;;;;;;461203;258;1130;-45
2021/06/02 03:06:03;;;;;;;;;;;21.40;44.70;;;;;;461178;258;1233;-45
2021/06/02 03:08:04;;;;;;;;;;;21.50;44.70;;;;;;461519;258;2216;-45
2021/06/02 03:10:05;;;;;;;;;;;21.50;44.60;;;;;;461257;258;1061;-44
2021/06/02 03:12:07;;;;;;;;;;;21.50;44.60;;;;;;461137;258;1281;-45
2021/06/02 03:14:08;;;;;;;;;;;21.50;44.50;;;;;;461554;258;1139;-45
2021/06/02 03:16:09;;;;;;;;;;;21.50;44.40;;;;;;461582;258;1563;-45
2021/06/02 03:18:11;;;;;;;;;;;21.50;44.50;;;;;;461554;258;1041;-45
2021/06/02 03:20:12;;;;;;;;;;;21.50;44.40;;;;;;461189;258;1085;-44
2021/06/02 03:22:13;;;;;;;;;;;21.60;44.40;;;;;;461225;258;1241;-45
2021/06/02 03:24:15;;;;;;;;;;;21.60;44.40;;;;;;461135;258;1113;-45
2021/06/02 03:26:16;;;;;;;;;;;21.60;44.40;;;;;;461348;258;1258;-45
2021/06/02 03:28:17;;;;;;;;;;;21.60;44.30;;;;;;461287;258;2145;-45
2021/06/02 03:30:19;;;;;;;;;;;21.60;44.40;;;;;;461584;258;1070;-45
2021/06/02 03:32:20;;;;;;;;;;;21.60;44.30;;;;;;461607;258;1411;-44
2021/06/02 03:34:21;;;;;;;;;;;21.60;44.30;;;;;;461281;258;1126;-45
2021/06/02 03:36:23;;;;;;;;;;;21.60;44.30;;;;;;461144;258;1214;-44
2021/06/02 03:38:24;;;;;;;;;;;21.70;44.30;;;;;;461236;258;1010;-45
2021/06/02 03:40:25;;;;;;;;;;;21.70;44.20;;;;;;461586;258;1074;-45
2021/06/02 03:42:27;;;;;;;;;;;21.70;44.20;;;;;;461152;258;1691;-44
2021/06/02 03:44:28;;;;;;;;;;;21.70;44.20;;;;;;461232;258;1292;-45
2021/06/02 03:46:29;;;;;;;;;;;21.70;44.10;;;;;;461542;258;1014;-45
2021/06/02 03:48:30;;;;;;;;;;;21.70;44.10;;;;;;461261;258;2160;-45
2021/06/02 03:50:32;;;;;;;;;;;21.80;44.20;;;;;;461459;258;1088;-44
2021/06/02 03:52:33;;;;;;;;;;;21.80;44.10;;;;;;461121;258;1270;-45
2021/06/02 03:54:34;;;;;;;;;;;21.80;44.10;;;;;;461529;258;1135;-45
2021/06/02 03:56:35;;;;;;;;;;;21.80;44.10;;;;;;461532;258;1082;-45
2021/06/02 03:58:37;;;;;;;;;;;21.80;44.00;;;;;;461093;258;1613;-45
2021/06/02 04:00:38;;;;;;;;;;;21.80;44.00;;;;;;461346;258;1084;-45
2021/06/02 04:02:39;;;;;;;;;;;21.90;44.00;;;;;;461129;258;1083;-45
2021/06/02 04:04:41;;;;;;;;;;;21.90;44.00;;;;;;461189;258;1057;-45
2021/06/02 04:06:42;;;;;;;;;;;21.90;44.00;;;;;;461174;258;1156;-45
2021/06/02 04:08:43;;;;;;;;;;;21.90;44.00;;;;;;461223;258;2153;-45
2021/06/02 04:10:44;;;;;;;;;;;21.90;44.00;;;;;;461361;258;1073;-45
2021/06/02 04:12:46;;;;;;;;;;;21.90;44.10;;;;;;461436;258;1072;-45
2021/06/02 04:14:47;;;;;;;;;;;21.90;43.80;;;;;;461574;258;1078;-44
2021/06/02 04:16:48;;;;;;;;;;;21.70;44.20;;;;;;461256;258;1088;-45
2021/06/02 04:18:51;;;;;;;;;;;21.20;45.40;;;;;;461126;258;1046;-45
2021/06/02 04:20:51;;;;;;;;;;;20.70;46.60;;;;;;461023;258;1974;-44
2021/06/02 04:22:52;;;;;;;;;;;20.30;47.50;;;;;;461157;258;1266;-44
2021/06/02 04:24:53;;;;;;;;;;;20.10;48.30;;;;;;461163;258;1067;-45
2021/06/02 04:26:55;;;;;;;;;;;19.90;48.70;;;;;;461048;258;1084;-44
2021/06/02 04:28:56;;;;;;;;;;;19.80;49.00;;;;;;461114;258;2153;-44
2021/06/02 04:30:57;;;;;;;;;;;19.70;49.30;;;;;;461114;258;1086;-44
2021/06/02 04:32:59;;;;;;;;;;;19.50;49.60;;;;;;461497;258;1329;-44
2021/06/02 04:35:00;;;;;;;;;;;19.50;49.80;;;;;;461188;258;1084;-44
2021/06/02 04:37:01;;;;;;;;;;;19.40;50.00;;;;;;461070;258;1266;-45
2021/06/02 04:39:02;;;;;;;;;;;19.40;50.20;;;;;;461178;258;1071;-45
2021/06/02 04:41:04;;;;;;;;;;;19.30;50.30;;;;;;461515;258;1176;-44
2021/06/02 04:43:05;;;;;;;;;;;19.30;50.40;;;;;;461539;258;1169;-44
2021/06/02 04:45:06;;;;;;;;;;;19.20;50.50;;;;;;461318;258;1180;-45
2021/06/02 04:47:08;;;;;;;;;;;19.20;50.60;;;;;;461422;258;1162;-44
2021/06/02 04:49:09;;;;;;;;;;;19.20;50.60;;;;;;460974;258;2208;-44
2021/06/02 04:51:12;;;;;;;;;;;19.10;50.60;;;;;;461190;258;1475;-44
2021/06/02 04:53:13;;;;;;;;;;;19.10;50.80;;;;;;461107;258;1211;-44
2021/06/02 04:55:15;;;;;;;;;;;19.10;50.80;;;;;;461149;258;1095;-44
2021/06/02 04:57:16;;;;;;;;;;;19.00;50.80;;;;;;461453;258;1111;-44
2021/06/02 04:59:17;;;;;;;;;;;19.00;51.00;;;;;;461325;258;1061;-44
2021/06/02 05:01:18;;;;;;;;;;;18.90;51.10;;;;;;461276;258;1215;-44
2021/06/02 05:03:20;;;;;;;;;;;18.90;51.20;;;;;;461218;258;1094;-44
2021/06/02 05:05:21;;;;;;;;;;;18.90;51.20;;;;;;461026;258;1125;-44
2021/06/02 05:07:22;;;;;;;;;;;18.90;51.20;;;;;;461107;258;1157;-44
2021/06/02 05:09:24;;;;;;;;;;;18.80;51.30;;;;;;461086;258;2185;-44
2021/06/02 05:11:25;;;;;;;;;;;18.80;51.40;;;;;;461000;258;1255;-44
2021/06/02 05:13:27;;;;;;;;;;;18.80;51.40;;;;;;461211;258;1183;-44
2021/06/02 05:15:28;;;;;;;;;;;18.80;51.30;;;;;;461021;258;1060;-45
2021/06/02 05:17:29;;;;;;;;;;;18.80;51.40;;;;;;461250;258;1161;-44
2021/06/02 05:19:49;;;;;;;;;;;18.70;51.50;;;;;;461160;258;1102;-44
2021/06/02 05:22:05;;;;;;;;;;;18.70;51.50;;;;;;461020;258;2240;-45
2021/06/02 05:24:07;;;;;;;;;;;18.70;51.60;;;;;;460994;258;1214;-45
2021/06/02 05:26:08;;;;;;;;;;;18.60;51.60;;;;;;461022;258;1159;-44
2021/06/02 05:28:11;;;;;;;;;;;18.70;51.70;;;;;;460970;258;2204;-44
2021/06/02 05:30:12;;;;;;;;;;;18.60;51.60;;;;;;461377;258;1125;-44
2021/06/02 05:32:14;;;;;;;;;;;18.70;51.60;;;;;;461127;258;1192;-44
2021/06/02 05:34:15;;;;;;;;;;;18.60;51.70;;;;;;461280;258;1208;-44
2021/06/02 05:36:16;;;;;;;;;;;18.60;51.80;;;;;;460915;258;1490;-44
2021/06/02 05:38:17;;;;;;;;;;;18.60;51.80;;;;;;461263;258;1147;-44
2021/06/02 05:40:19;;;;;;;;;;;18.60;51.70;;;;;;461148;258;1082;-44
2021/06/02 05:42:20;;;;;;;;;;;18.60;51.80;;;;;;461299;258;1087;-44
2021/06/02 05:44:21;;;;;;;;;;;18.60;51.70;;;;;;461139;258;1082;-44
2021/06/02 05:46:23;;;;;;;;;;;18.60;51.80;;;;;;460807;258;1260;-44
2021/06/02 05:48:24;;;;;;;;;;;18.50;51.80;;;;;;460867;258;2199;-44
2021/06/02 05:50:25;;;;;;;;;;;18.50;51.80;;;;;;461077;258;1167;-44
2021/06/02 05:52:27;;;;;;;;;;;18.50;51.80;;;;;;461015;258;1105;-44
2021/06/02 05:54:28;;;;;;;;;;;18.50;51.80;;;;;;460813;258;1213;-44
2021/06/02 05:56:29;;;;;;;;;;;18.50;51.80;;;;;;460847;258;1218;-44
2021/06/02 05:58:30;;;;;;;;;;;18.50;51.80;;;;;;460792;258;1114;-44
2021/06/02 06:00:32;;;;;;;;;;;18.60;51.70;;;;;;460764;258;1255;-45
2021/06/02 06:02:33;;;;;;;;;;;19.00;50.70;;;;;;461071;258;1146;-44
2021/06/02 06:04:34;;;;;;;;;;;19.40;49.50;;;;;;460892;258;1102;-45
2021/06/02 06:06:35;;;;;;;;;;;19.70;48.70;;;;;;460855;258;1335;-45
2021/06/02 06:08:37;;;;;;;;;;;19.90;48.10;;;;;;461046;258;2209;-45
2021/06/02 06:10:38;;;;;;;;;;;20.10;47.60;;;;;;460694;258;1124;-45
2021/06/02 06:12:39;;;;;;;;;;;20.20;47.30;;;;;;460744;258;1115;-44
2021/06/02 06:14:41;;;;;;;;;;;20.40;47.00;;;;;;460794;258;1211;-44
2021/06/02 06:16:42;;;;;;;;;;;20.40;46.80;;;;;;460716;258;1352;-45
2021/06/02 06:18:44;;;;;;;;;;;20.50;46.70;;;;;;460925;258;1135;-45
2021/06/02 06:20:45;;;;;;;;;;;20.50;46.50;;;;;;460833;258;1133;-45
2021/06/02 06:22:46;;;;;;;;;;;20.60;46.30;;;;;;460851;258;1377;-44
2021/06/02 06:24:48;;;;;;;;;;;20.70;46.20;;;;;;460810;258;1258;-45
2021/06/02 06:26:49;;;;;;;;;;;20.70;46.10;;;;;;460941;258;1191;-45
2021/06/02 06:28:51;;;;;;;;;;;20.70;45.90;;;;;;460991;258;2191;-44
2021/06/02 06:30:52;;;;;;;;;;;20.80;45.90;;;;;;460651;258;1186;-45
2021/06/02 06:32:53;;;;;;;;;;;20.80;45.80;;;;;;460603;258;1152;-44
2021/06/02 06:34:55;;;;;;;;;;;20.90;45.80;;;;;;460656;258;1114;-45
2021/06/02 06:36:56;;;;;;;;;;;20.90;45.60;;;;;;460600;258;1113;-45
2021/06/02 06:38:58;;;;;;;;;;;20.90;45.50;;;;;;460546;258;1483;-45
2021/06/02 06:40:59;;;;;;;;;;;21.00;45.50;;;;;;460496;258;1140;-45
2021/06/02 06:43:00;;;;;;;;;;;21.00;45.50;;;;;;460522;258;1236;-44
2021/06/02 06:45:01;;;;;;;;;;;21.00;45.40;;;;;;460484;258;1132;-45
2021/06/02 06:47:03;;;;;;;;;;;21.10;45.20;;;;;;460515;258;1134;-45
2021/06/02 06:49:04;;;;;;;;;;;21.10;45.20;;;;;;460645;258;2141;-44
2021/06/02 06:51:05;;;;;;;;;;;21.20;45.20;;;;;;460652;258;1220;-44
2021/06/02 06:53:06;;;;;;;;;;;21.20;45.20;;;;;;460664;258;1232;-45
2021/06/02 06:55:08;;;;;;;;;;;21.20;45.10;;;;;;460768;258;1268;-45
2021/06/02 06:57:09;;;;;;;;;;;21.20;45.10;;;;;;460684;258;1204;-44
2021/06/02 06:59:10;;;;;;;;;;;21.20;45.00;;;;;;460727;258;1109;-44
2021/06/02 07:01:12;;;;;;;;;;;21.20;45.00;;;;;;460470;258;1406;-45
2021/06/02 07:03:13;;;;;;;;;;;21.20;45.00;;;;;;460689;258;1085;-45
2021/06/02 07:05:15;;;;;;;;;;;21.30;44.90;;;;;;460706;258;1250;-45
2021/06/02 07:07:16;;;;;;;;;;;21.30;44.90;;;;;;460596;258;1197;-44
2021/06/02 07:09:17;;;;;;;;;;;21.30;44.90;;;;;;460629;258;2208;-45
2021/06/02 07:11:18;;;;;;;;;;;21.30;44.80;;;;;;460557;258;1355;-45
2021/06/02 07:13:20;;;;;;;;;;;21.40;44.80;;;;;;460630;258;1143;-44
2021/06/02 07:15:21;;;;;;;;;;;21.40;44.80;;;;;;460509;258;1154;-45
2021/06/02 07:17:22;;;;;;;;;;;21.40;44.80;;;;;;460457;258;1432;-45
2021/06/02 07:19:23;;;;;;;;;;;21.40;44.70;;;;;;460645;258;1075;-44
2021/06/02 07:21:25;;;;;;;;;;;21.40;44.60;;;;;;460417;258;1358;-45
2021/06/02 07:23:26;;;;;;;;;;;21.50;44.70;;;;;;460550;258;1124;-45
2021/06/02 07:25:27;;;;;;;;;;;21.50;44.60;;;;;;460511;258;1230;-45
2021/06/02 07:27:29;;;;;;;;;;;21.50;44.50;;;;;;460357;258;1426;-45
2021/06/02 07:29:30;;;;;;;;;;;21.50;44.50;;;;;;460552;258;2157;-45
2021/06/02 07:31:31;;;;;;;;;;;21.50;44.50;;;;;;460386;258;1468;-44
2021/06/02 07:33:32;;;;;;;;;;;21.50;44.40;;;;;;460577;258;1313;-45
2021/06/02 07:35:34;;;;;;;;;;;21.60;44.40;;;;;;460647;258;1170;-45
2021/06/02 07:37:35;;;;;;;;;;;21.60;44.40;;;;;;460613;258;1221;-45
2021/06/02 07:39:36;;;;;;;;;;;21.60;44.30;;;;;;460587;258;1134;-45
2021/06/02 07:41:38;;;;;;;;;;;21.70;44.40;;;;;;460478;258;1347;-45
2021/06/02 07:43:39;;;;;;;;;;;21.70;44.30;;;;;;460568;258;1251;-45
2021/06/02 07:45:40;;;;;;;;;;;21.70;44.20;;;;;;460572;258;1192;-45
2021/06/02 07:47:41;;;;;;;;;;;21.70;44.20;;;;;;460593;258;1222;-44
2021/06/02 07:49:43;;;;;;;;;;;21.70;44.20;;;;;;460678;258;2200;-44
2021/06/02 07:51:44;;;;;;;;;;;21.70;44.20;;;;;;460331;258;1383;-45
2021/06/02 07:53:45;;;;;;;;;;;21.70;44.20;;;;;;460520;258;1195;-45
2021/06/02 07:55:47;;;;;;;;;;;21.80;44.20;;;;;;460153;258;1328;-45
2021/06/02 07:57:48;;;;;;;;;;;21.80;44.10;;;;;;460368;258;1275;-45
2021/06/02 07:59:49;;;;;;;;;;;21.80;44.10;;;;;;460130;258;1221;-45
2021/06/02 08:01:51;;;;;;;;;;;21.80;44.10;;;;;;459999;258;1379;-45
2021/06/02 08:03:52;;;;;;;;;;;21.80;44.00;;;;;;460000;258;1224;-45
2021/06/02 08:05:53;;;;;;;;;;;21.80;44.00;;;;;;460242;258;1373;-44
2021/06/02 08:07:54;;;;;;;;;;;21.90;44.00;;;;;;460474;258;1319;-45
2021/06/02 08:09:56;;;;;;;;;;;21.80;44.00;;;;;;460462;258;2196;-45
2021/06/02 08:11:57;;;;;;;;;;;21.90;44.00;;;;;;460475;258;1302;-45
2021/06/02 08:13:58;;;;;;;;;;;21.90;44.00;;;;;;460564;258;1156;-45
2021/06/02 08:15:59;;;;;;;;;;;21.90;43.90;;;;;;460443;258;1247;-45
2021/06/02 08:18:02;;;;;;;;;;;21.90;43.90;;;;;;460660;258;1204;-45
2021/06/02 08:20:02;;;;;;;;;;;21.90;44.00;;;;;;460585;258;1841;-45
2021/06/02 08:22:04;;;;;;;;;;;21.90;43.90;;;;;;460460;258;1195;-45
2021/06/02 08:24:05;;;;;;;;;;;21.90;43.90;;;;;;460495;258;1362;-45
2021/06/02 08:26:08;;;;;;;;;;;21.90;43.90;;;;;;460235;258;1336;-45
2021/06/02 08:28:07;;;;;;;;;;;22.00;43.90;;;;;;460269;258;1621;-45
2021/06/02 08:30:09;;;;;;;;;;;21.80;44.20;;;;;;460469;258;2200;-45
2021/06/02 08:32:10;;;;;;;;;;;21.20;45.30;;;;;;460476;258;1276;-44
2021/06/02 08:34:11;;;;;;;;;;;20.70;46.50;;;;;;460503;258;1230;-45
2021/06/02 08:36:13;;;;;;;;;;;20.30;47.50;;;;;;460395;258;1837;-45
2021/06/02 08:38:14;;;;;;;;;;;20.10;48.20;;;;;;460273;258;1151;-44
2021/06/02 08:40:15;;;;;;;;;;;19.90;48.50;;;;;;460520;258;1132;-44
2021/06/02 08:42:17;;;;;;;;;;;19.80;48.90;;;;;;460408;258;1498;-44
2021/06/02 08:44:19;;;;;;;;;;;19.70;49.20;;;;;;460480;258;2052;-44
2021/06/02 08:46:20;;;;;;;;;;;19.60;49.40;;;;;;460362;258;1996;-44
2021/06/02 08:48:21;;;;;;;;;;;19.50;49.60;;;;;;461090;258;1076;-44
2021/06/02 08:50:22;;;;;;;;;;;19.50;49.80;;;;;;460577;258;2195;-44
2021/06/02 08:52:24;;;;;;;;;;;19.40;50.00;;;;;;460480;258;1310;-44
2021/06/02 08:54:25;;;;;;;;;;;19.40;50.10;;;;;;460619;258;1239;-44
2021/06/02 08:56:26;;;;;;;;;;;19.30;50.30;;;;;;460512;258;1229;-45
2021/06/02 08:58:27;;;;;;;;;;;19.20;50.40;;;;;;460549;258;1141;-44
2021/06/02 09:00:29;;;;;;;;;;;19.20;50.50;;;;;;460403;258;1207;-45
2021/06/02 09:02:30;;;;;;;;;;;19.20;50.50;;;;;;460529;258;1330;-44
2021/06/02 09:04:33;;;;;;;;;;;19.10;50.60;;;;;;460427;258;1122;-44
2021/06/02 09:06:33;;;;;;;;;;;19.10;50.70;;;;;;460440;258;2089;-44
2021/06/02 09:08:34;;;;;;;;;;;19.10;50.70;;;;;;461176;258;1509;-44
2021/06/02 09:10:35;;;;;;;;;;;19.00;50.80;;;;;;460595;258;2160;-44
2021/06/02 09:12:37;;;;;;;;;;;19.00;50.90;;;;;;460498;258;1652;-44
2021/06/02 09:14:38;;;;;;;;;;;19.00;51.00;;;;;;460347;258;1261;-44
2021/06/02 09:16:39;;;;;;;;;;;18.90;51.10;;;;;;460418;258;1220;-44
2021/06/02 09:18:40;;;;;;;;;;;18.90;51.20;;;;;;460745;258;973;-44
2021/06/02 09:20:42;;;;;;;;;;;18.90;51.20;;;;;;460408;258;1144;-44
2021/06/02 09:22:43;;;;;;;;;;;18.90;51.20;;;;;;460460;258;1148;-44
2021/06/02 09:24:44;;;;;;;;;;;18.90;51.20;;;;;;460458;258;1256;-45
2021/06/02 09:26:45;;;;;;;;;;;18.90;51.20;;;;;;460579;258;1327;-44
2021/06/02 09:28:47;;;;;;;;;;;18.80;51.10;;;;;;460543;258;1201;-44
2021/06/02 09:30:48;;;;;;;;;;;18.90;51.20;;;;;;460387;258;2193;-44
2021/06/02 09:32:50;;;;;;;;;;;18.80;51.20;;;;;;460441;258;1185;-45
2021/06/02 09:34:51;;;;;;;;;;;18.80;51.20;;;;;;460357;258;1095;-44
2021/06/02 09:36:53;;;;;;;;;;;18.80;51.20;;;;;;460442;258;1416;-44
2021/06/02 09:38:53;;;;;;;;;;;18.80;51.30;;;;;;460422;258;2168;-44
2021/06/02 09:40:55;;;;;;;;;;;18.80;51.30;;;;;;460540;258;1281;-44
2021/06/02 09:42:56;;;;;;;;;;;18.80;51.30;;;;;;460479;258;1238;-44
2021/06/02 09:44:57;;;;;;;;;;;18.70;51.30;;;;;;460605;258;1132;-44
2021/06/02 09:46:59;;;;;;;;;;;18.70;51.30;;;;;;460538;258;1395;-44
2021/06/02 09:49:00;;;;;;;;;;;18.70;51.40;;;;;;460478;258;1144;-44
2021/06/02 09:51:02;;;;;;;;;;;18.70;51.50;;;;;;460351;258;2208;-44
2021/06/02 09:53:03;;;;;;;;;;;18.60;51.60;;;;;;460529;258;1152;-44
2021/06/02 09:55:04;;;;;;;;;;;18.60;51.60;;;;;;460637;258;1135;-44
2021/06/02 09:57:05;;;;;;;;;;;18.60;51.60;;;;;;460630;258;1413;-44
2021/06/02 09:59:08;;;;;;;;;;;18.60;51.60;;;;;;460629;258;1235;-44
2021/06/02 10:01:08;;;;;;;;;;;18.60;51.50;;;;;;460606;258;1902;-44
2021/06/02 10:03:10;;;;;;;;;;;18.60;51.60;;;;;;460987;258;1087;-44
2021/06/02 10:05:11;;;;;;;;;;;18.60;51.60;;;;;;460525;258;1114;-44
2021/06/02 10:07:12;;;;;;;;;;;18.60;51.60;;;;;;460341;258;1117;-44
2021/06/02 10:09:14;;;;;;;;;;;18.60;51.60;;;;;;460416;258;1153;-44
2021/06/02 10:11:16;;;;;;;;;;;18.50;51.70;;;;;;460432;258;2138;-44
2021/06/02 10:13:16;;;;;;;;;;;18.50;51.80;;;;;;460648;258;2229;-45
2021/06/02 10:15:18;;;;;;;;;;;18.40;51.90;;;;;;461004;258;1121;-45
2021/06/02 10:17:19;;;;;;;;;;;18.50;51.80;;;;;;460945;258;1281;-45
2021/06/02 10:19:20;;;;;;;;;;;18.50;51.80;;;;;;460590;258;871;-45
2021/06/02 10:21:21;;;;;;;;;;;18.50;51.80;;;;;;460807;258;1593;-44
2021/06/02 10:23:23;;;;;;;;;;;18.50;51.80;;;;;;460971;258;775;-44
2021/06/02 10:25:24;;;;;;;;;;;18.50;51.80;;;;;;460995;258;820;-44
2021/06/02 10:27:25;;;;;;;;;;;18.60;51.60;;;;;;460911;258;1413;-44
2021/06/02 10:29:27;;;;;;;;;;;19.00;50.60;;;;;;461033;258;862;-44
2021/06/02 10:31:28;;;;;;;;;;;19.40;49.40;;;;;;461074;258;2195;-45
2021/06/02 10:33:29;;;;;;;;;;;19.70;48.60;;;;;;460792;258;1198;-44
2021/06/02 10:35:30;;;;;;;;;;;19.90;48.00;;;;;;460823;258;943;-44
2021/06/02 10:37:33;;;;;;;;;;;20.10;47.50;;;;;;461137;258;915;-44
2021/06/02 10:39:34;;;;;;;;;;;20.20;47.10;;;;;;461094;258;875;-44
2021/06/02 10:41:36;;;;;;;;;;;20.40;47.00;;;;;;461020;258;879;-45
2021/06/02 10:43:37;;;;;;;;;;;20.40;46.70;;;;;;460387;258;1279;-45
2021/06/02 10:45:38;;;;;;;;;;;20.50;46.60;;;;;;461091;258;826;-45
2021/06/02 10:47:39;;;;;;;;;;;20.60;46.40;;;;;;460739;258;1077;-45
2021/06/02 10:49:41;;;;;;;;;;;20.60;46.30;;;;;;461013;258;2200;-45
2021/06/02 10:51:42;;;;;;;;;;;20.60;46.10;;;;;;460914;258;1083;-45
2021/06/02 10:53:43;;;;;;;;;;;20.70;46.00;;;;;;461150;258;922;-45
2021/06/02 10:55:44;;;;;;;;;;;20.70;45.90;;;;;;461073;258;1386;-45
2021/06/02 10:57:46;;;;;;;;;;;20.80;45.90;;;;;;461001;258;1220;-45
2021/06/02 10:59:47;;;;;;;;;;;20.80;45.70;;;;;;460668;258;918;-45
2021/06/02 11:01:48;;;;;;;;;;;20.90;45.60;;;;;;460818;258;1542;-45
2021/06/02 11:03:50;;;;;;;;;;;20.90;45.50;;;;;;460594;258;965;-45
2021/06/02 11:05:51;;;;;;;;;;;21.00;45.50;;;;;;460686;258;1048;-44
2021/06/02 11:07:52;;;;;;;;;;;21.00;45.40;;;;;;460256;258;1098;-44
2021/06/02 11:09:53;;;;;;;;;;;21.00;45.30;;;;;;460416;258;2176;-45
2021/06/02 11:11:55;;;;;;;;;;;21.00;45.20;;;;;;460338;258;1178;-45
2021/06/02 11:13:56;;;;;;;;;;;21.10;45.20;;;;;;460346;258;1158;-44
2021/06/02 11:15:58;;;;;;;;;;;21.10;45.10;;;;;;460357;258;1266;-45
2021/06/02 11:17:59;;;;;;;;;;;21.20;45.10;;;;;;460477;258;1177;-44
2021/06/02 11:20:06;;;;;;;;;;;21.20;45.00;;;;;;460496;258;1252;-45
2021/06/02 11:22:02;;;;;;;;;;;21.20;45.00;;;;;;460197;258;2122;-44
2021/06/02 11:24:03;;;;;;;;;;;21.20;45.00;;;;;;460625;258;1158;-44
2021/06/02 11:26:04;;;;;;;;;;;21.20;44.90;;;;;;460451;258;1127;-44
2021/06/02 11:28:06;;;;;;;;;;;21.30;44.90;;;;;;460453;258;1142;-45
2021/06/02 11:30:07;;;;;;;;;;;21.30;44.90;;;;;;460582;258;2164;-45
2021/06/02 11:32:08;;;;;;;;;;;21.30;44.90;;;;;;460439;258;1278;-45
2021/06/02 11:34:10;;;;;;;;;;;21.30;44.80;;;;;;459849;258;1138;-45
2021/06/02 11:36:12;;;;;;;;;;;21.30;44.80;;;;;;460580;258;1354;-45
2021/06/02 11:38:12;;;;;;;;;;;21.30;44.80;;;;;;460430;258;1382;-45
2021/06/02 11:40:15;;;;;;;;;;;21.30;44.80;;;;;;460480;258;1453;-45
2021/06/02 11:42:16;;;;;;;;;;;21.40;44.70;;;;;;460222;258;2187;-45
2021/06/02 11:44:17;;;;;;;;;;;21.40;44.70;;;;;;460214;258;1177;-45
2021/06/02 11:46:18;;;;;;;;;;;21.40;44.60;;;;;;460128;258;1348;-45
2021/06/02 11:48:20;;;;;;;;;;;21.40;44.60;;;;;;460327;258;1286;-45
2021/06/02 11:50:21;;;;;;;;;;;21.50;44.60;;;;;;460397;258;2204;-45
2021/06/02 11:52:22;;;;;;;;;;;21.50;44.60;;;;;;460588;258;1381;-45
2021/06/02 11:54:23;;;;;;;;;;;21.50;44.40;;;;;;460451;258;1105;-45
2021/06/02 11:56:25;;;;;;;;;;;21.60;44.40;;;;;;460441;258;1291;-45